Naples, FL

10:01 AM EDT on August 31, 2015 (GMT -0400)
Isles of Capri | | Change Station
CLOSE
Current Station
Personal Weather Station
Location: Naples, FL
Elevation: 6 ft
Nearby Weather Stations

Elev 6 ft 25.98 °N, 81.73 °W | Updated 13 hours ago

Mostly Cloudy
Mostly Cloudy
86 °F
Feels Like 95 °F
N
12
Wind Variable Wind from SSE
Gusts mph

Today
High -- | Low -- °F
--% Chance of Precip.
Yesterday
High -- | Low -- °F
Precip. -- in
7:06 AM 7:47 PM
Waning Gibbous, 95% visible
Pressure 30.00 in
Visibility 10.0 miles
Clouds Few 9000 ft
Heat Index 95 °F
Dew Point 76 °F
Humidity 73%
Rainfall in
Snow Depth Not available.
UV 2 out of 12
Pollen 3.30 out of 12
Air Quality Not available.
Flu Activity Not available.
METAR KAPF 311253Z 13008KT 10SM FEW090 28/25 A3000 RMK AO2 LTG DSNT W SLP157 T02830250
Pressure 30.00 in
Visibility 10.0 miles
Clouds Few 9000 ft
Heat Index 95 °F
Dew Point 76 °F
Humidity 73%
Rainfall in
Snow Depth Not available.
UV 2 out of 12
Pollen 3.30 out of 12
Air Quality Not available.
Flu Activity Not available.
METAR KAPF 311253Z 13008KT 10SM FEW090 28/25 A3000 RMK AO2 LTG DSNT W SLP157 T02830250

10-Day Weather Forecast

×

Almanac

Astronomy

Aug. 31, 2015 Rise Set
Actual Time
Civil Twilight
Nautical Twilight
Astronomical Twilight
Moon
Length of Visible Light
Length of Day
Tomorrow will be .
, % of the Moon is Illuminated

Today's Extremes

State Highs State Lows

Community

WunderPhotos

Upload Photos

1,851,243 photos uploaded!

WunderBlogs® & News

Nearby

Air Quality

  Air Quality AQ Index Pollutant
Not available.

Snow Depth

Station Depth Elevation

Earthquake Activity

City Distance Mag. Time & Date
Minimum magnitude displayed is 2.5.

Coastal Water Temperatures

Place Temperature

Stations

Nearby Weather Stations

Station Location Temp. Windchill Dew Point Humidity Wind Precip. Elev Updated Type